createdAt,value
2019-05-28T00:02:13.642Z,124.93
2019-05-28T00:04:42.727Z,10.33
2019-05-28T00:07:15.009Z,10.07
2019-05-28T00:09:44.090Z,12.07
2019-05-28T00:12:13.492Z,11.43
2019-05-28T00:14:44.120Z,11.20
2019-05-28T00:17:15.042Z,11.63
2019-05-28T00:19:44.559Z,12.20
2019-05-28T00:22:13.990Z,11.10
2019-05-28T00:24:43.419Z,10.97
2019-05-28T00:27:12.845Z,11.30
2019-05-28T00:29:42.285Z,10.63
2019-05-28T00:32:12.118Z,10.30
2019-05-28T00:34:42.044Z,11.13
2019-05-28T00:37:11.283Z,10.90
2019-05-28T00:39:40.774Z,10.97
2019-05-28T00:42:10.800Z,10.90
2019-05-28T00:44:40.305Z,11.20
2019-05-28T00:47:09.613Z,10.07
2019-05-28T00:49:39.189Z,10.80
2019-05-28T00:52:08.628Z,10.77
2019-05-28T00:54:37.825Z,11.40
2019-05-28T00:57:07.629Z,10.43
2019-05-28T00:59:37.042Z,11.90
2019-05-28T01:02:06.651Z,11.63
2019-05-28T01:04:42.555Z,11.80
2019-05-28T01:07:12.499Z,10.70
2019-05-28T01:09:41.896Z,10.63
2019-05-28T01:12:11.314Z,11.87
2019-05-28T01:14:40.730Z,11.30
2019-05-28T01:17:10.504Z,11.23
2019-05-28T01:19:40.141Z,11.03
2019-05-28T01:22:09.585Z,11.50
2019-05-28T01:24:38.987Z,12.43
2019-05-28T01:27:08.159Z,11.73
2019-05-28T01:29:37.631Z,11.97
2019-05-28T01:32:07.019Z,11.47
2019-05-28T01:34:36.226Z,11.47
2019-05-28T01:37:05.354Z,11.70
2019-05-28T01:39:34.735Z,11.47
2019-05-28T01:42:03.929Z,11.80
2019-05-28T01:44:33.097Z,11.77
2019-05-28T01:47:02.239Z,11.93
2019-05-28T01:49:31.692Z,11.30
2019-05-28T01:52:01.204Z,12.20
2019-05-28T01:54:30.638Z,11.90
2019-05-28T01:56:59.824Z,11.93
2019-05-28T01:59:29.033Z,12.53
2019-05-28T02:01:58.184Z,11.97
2019-05-28T02:04:27.348Z,13.37
2019-05-28T02:06:56.508Z,13.50
2019-05-28T02:09:25.782Z,13.07
2019-05-28T02:11:55.082Z,12.93
2019-05-28T02:14:24.249Z,13.57
2019-05-28T02:16:53.638Z,12.43
2019-05-28T02:19:22.839Z,13.50
2019-05-28T02:21:52.025Z,14.07
2019-05-28T02:24:21.454Z,13.87
2019-05-28T02:26:50.712Z,14.63
2019-05-28T02:29:19.945Z,13.90
2019-05-28T02:31:49.343Z,13.73
2019-05-28T02:34:18.540Z,13.13
2019-05-28T02:36:47.665Z,14.33
2019-05-28T02:39:17.239Z,14.67
2019-05-28T02:41:46.649Z,14.13
2019-05-28T02:44:16.143Z,15.10
2019-05-28T02:46:45.545Z,14.37
2019-05-28T02:49:14.976Z,14.80
2019-05-28T02:51:44.386Z,13.97
2019-05-28T02:54:13.555Z,14.23
2019-05-28T02:56:43.810Z,14.63
2019-05-28T02:59:15.943Z,15.27
2019-05-28T03:01:45.213Z,14.17
2019-05-28T03:04:16.191Z,14.53
2019-05-28T03:06:47.365Z,14.73
2019-05-28T03:09:18.405Z,14.30
2019-05-28T03:11:47.558Z,15.27
2019-05-28T03:14:17.032Z,15.53
2019-05-28T03:16:47.350Z,14.87
2019-05-28T03:19:17.518Z,14.77
2019-05-28T03:21:47.473Z,14.80
2019-05-28T03:24:19.799Z,14.00
2019-05-28T03:26:49.201Z,13.77
2019-05-28T03:29:18.421Z,14.80
2019-05-28T03:32:06.016Z,13.70
2019-05-28T03:34:18.831Z,14.27
2019-05-28T03:36:49.739Z,14.23
2019-05-28T03:39:20.709Z,12.27
2019-05-28T03:41:49.909Z,12.03
2019-05-28T03:44:19.107Z,12.37
2019-05-28T03:46:48.504Z,12.60
2019-05-28T03:49:19.657Z,12.10
2019-05-28T03:51:49.052Z,11.10
2019-05-28T03:54:18.466Z,11.13
2019-05-28T03:56:47.666Z,10.63
2019-05-28T03:59:17.275Z,10.87
2019-05-28T04:01:47.703Z,11.20
2019-05-28T04:04:17.001Z,10.37
2019-05-28T04:06:47.121Z,11.10
2019-05-28T04:09:33.586Z,10.00
2019-05-28T04:12:00.474Z,9.23
2019-05-28T04:14:29.994Z,10.87
2019-05-28T04:16:59.382Z,10.27
2019-05-28T04:19:29.083Z,9.07
2019-05-28T04:21:58.292Z,7.77
2019-05-28T04:24:27.606Z,8.53
2019-05-28T04:26:57.467Z,8.07
2019-05-28T04:29:26.916Z,8.00
2019-05-28T04:31:56.409Z,7.37
2019-05-28T04:34:26.119Z,8.30
2019-05-28T04:36:55.535Z,8.63
2019-05-28T04:39:25.034Z,8.60
2019-05-28T04:41:54.549Z,8.43
2019-05-28T04:44:24.042Z,8.57
2019-05-28T04:46:53.546Z,7.70
2019-05-28T04:49:22.972Z,7.87
2019-05-28T04:51:52.266Z,8.43
2019-05-28T04:54:21.491Z,8.53
2019-05-28T04:56:51.196Z,7.90
2019-05-28T04:59:22.004Z,8.00
2019-05-28T05:01:51.483Z,8.07
2019-05-28T05:04:20.667Z,8.50
2019-05-28T05:06:50.072Z,7.33
2019-05-28T05:09:19.255Z,7.27
2019-05-28T05:11:48.656Z,8.07
2019-05-28T05:14:18.068Z,7.90
2019-05-28T05:16:47.512Z,7.57
2019-05-28T05:19:16.901Z,7.13
2019-05-28T05:21:46.748Z,8.00
2019-05-28T05:24:15.953Z,7.40
2019-05-28T05:26:45.453Z,6.70
2019-05-28T05:29:14.948Z,6.57
2019-05-28T05:31:44.288Z,7.47
2019-05-28T05:34:14.287Z,7.07
2019-05-28T05:36:44.084Z,6.30
2019-05-28T05:39:13.300Z,6.70
2019-05-28T05:41:42.796Z,6.67
2019-05-28T05:44:12.320Z,6.87
2019-05-28T05:46:41.613Z,6.87
2019-05-28T05:49:11.130Z,7.27
2019-05-28T05:51:40.720Z,6.37
2019-05-28T05:54:10.223Z,7.47
2019-05-28T05:56:39.729Z,7.07
2019-05-28T05:59:09.236Z,7.37
2019-05-28T06:01:38.650Z,8.10
2019-05-28T06:04:08.042Z,7.23
2019-05-28T06:06:37.254Z,6.63
2019-05-28T06:09:07.908Z,5.57
2019-05-28T06:11:37.492Z,5.83
2019-05-28T06:14:07.508Z,5.73
2019-05-28T06:16:37.113Z,5.70
2019-05-28T06:19:06.636Z,5.70
2019-05-28T06:21:36.122Z,6.40
2019-05-28T06:24:05.539Z,6.47
2019-05-28T06:26:34.849Z,6.77
2019-05-28T06:29:03.288Z,5.90
2019-05-28T06:31:32.659Z,6.20
2019-05-28T06:34:01.744Z,6.80
2019-05-28T06:36:31.115Z,5.97
2019-05-28T06:39:00.285Z,6.20
2019-05-28T06:41:29.443Z,5.60
2019-05-28T06:43:58.825Z,5.50
2019-05-28T06:46:27.940Z,5.40
2019-05-28T06:48:57.074Z,8.40
2019-05-28T06:51:26.440Z,5.27
2019-05-28T06:53:55.603Z,7.20
2019-05-28T06:56:24.945Z,5.50
2019-05-28T06:58:54.037Z,5.00
2019-05-28T07:01:23.759Z,5.13
2019-05-28T07:03:53.420Z,4.90
2019-05-28T07:06:22.489Z,4.90
2019-05-28T07:08:51.855Z,4.53
2019-05-28T07:11:21.208Z,4.60
2019-05-28T07:13:50.546Z,4.40
2019-05-28T07:16:19.905Z,4.80
2019-05-28T07:18:49.265Z,4.73
2019-05-28T07:21:18.591Z,4.60
2019-05-28T07:23:47.952Z,3.90
2019-05-28T07:26:17.074Z,4.30
2019-05-28T07:28:46.210Z,4.70
2019-05-28T07:31:15.544Z,4.30
2019-05-28T07:33:44.965Z,3.87
2019-05-28T07:36:14.323Z,4.27
2019-05-28T07:38:43.759Z,4.77
2019-05-28T07:41:13.115Z,4.40
2019-05-28T07:43:42.455Z,4.10
2019-05-28T07:46:11.979Z,4.20
2019-05-28T07:48:41.359Z,4.50
2019-05-28T07:51:10.722Z,4.60
2019-05-28T07:53:40.810Z,4.30
2019-05-28T07:56:10.216Z,4.20
2019-05-28T07:58:39.577Z,4.07
2019-05-28T08:01:08.845Z,4.00
2019-05-28T08:03:38.227Z,4.00
2019-05-28T08:06:07.590Z,3.90
2019-05-28T08:08:36.700Z,4.53
2019-05-28T08:11:05.797Z,4.30
2019-05-28T08:13:40.548Z,3.77
2019-05-28T08:16:18.150Z,4.87
2019-05-28T08:18:37.365Z,4.10
2019-05-28T08:21:06.723Z,5.50
2019-05-28T08:23:36.100Z,5.97
2019-05-28T08:26:05.530Z,7.13
2019-05-28T08:28:34.646Z,5.57
2019-05-28T08:31:14.717Z,5.03
2019-05-28T08:33:34.771Z,4.27
2019-05-28T08:36:04.042Z,4.03
2019-05-28T08:38:33.395Z,4.30
2019-05-28T08:41:02.511Z,3.97
2019-05-28T08:43:31.895Z,4.07
2019-05-28T08:46:00.973Z,3.17
2019-05-28T08:48:30.410Z,4.00
2019-05-28T08:50:59.632Z,3.70
2019-05-28T08:53:28.693Z,3.83
2019-05-28T08:55:57.777Z,4.47
2019-05-28T08:58:27.116Z,4.60
2019-05-28T09:00:56.246Z,4.63
2019-05-28T09:03:25.611Z,4.03
2019-05-28T09:05:54.958Z,3.83
2019-05-28T09:08:38.388Z,3.83
2019-05-28T09:10:55.126Z,4.13
2019-05-28T09:13:24.513Z,4.83
2019-05-28T09:15:53.994Z,4.60
2019-05-28T09:18:23.431Z,3.90
2019-05-28T09:20:52.629Z,5.40
2019-05-28T09:23:22.377Z,5.00
2019-05-28T09:25:51.712Z,3.63
2019-05-28T09:28:30.040Z,3.83
2019-05-28T09:30:51.998Z,2.80
2019-05-28T09:33:21.080Z,4.20
2019-05-28T09:36:06.367Z,3.30
2019-05-28T09:38:20.977Z,4.03
2019-05-28T09:40:51.397Z,4.00
2019-05-28T09:43:20.665Z,3.30
2019-05-28T09:45:50.060Z,3.73
2019-05-28T09:48:19.381Z,3.70
2019-05-28T09:50:51.780Z,3.33
2019-05-28T09:53:19.555Z,3.40
2019-05-28T09:55:48.931Z,3.03
2019-05-28T09:58:18.031Z,3.30
2019-05-28T10:00:57.385Z,3.57
2019-05-28T10:03:18.805Z,2.77
2019-05-28T10:06:01.621Z,2.80
2019-05-28T10:08:19.247Z,3.87
2019-05-28T10:10:48.386Z,9.07
2019-05-28T10:13:17.782Z,3.07
2019-05-28T10:15:47.399Z,4.40
2019-05-28T10:18:16.767Z,3.77
2019-05-28T10:20:46.153Z,3.50
2019-05-28T10:23:15.246Z,3.63
2019-05-28T10:25:44.612Z,4.33
2019-05-28T10:28:13.693Z,3.33
2019-05-28T10:30:43.053Z,3.17
2019-05-28T10:33:12.380Z,4.00
2019-05-28T10:35:41.767Z,4.07
2019-05-28T10:38:15.434Z,3.87
2019-05-28T10:40:41.676Z,3.83
2019-05-28T10:43:10.974Z,3.53
2019-05-28T10:45:40.218Z,3.97
2019-05-28T10:48:09.754Z,4.90
2019-05-28T10:50:39.181Z,3.87
2019-05-28T10:53:08.537Z,3.10
2019-05-28T10:55:38.220Z,3.20
2019-05-28T10:58:07.712Z,2.23
2019-05-28T11:00:37.236Z,3.63
2019-05-28T11:03:06.305Z,3.63
2019-05-28T11:05:35.697Z,3.50
2019-05-28T11:08:04.802Z,3.27
2019-05-28T11:10:34.522Z,2.90
2019-05-28T11:13:03.609Z,3.37
2019-05-28T11:15:32.821Z,2.90
2019-05-28T11:18:01.897Z,3.10
2019-05-28T11:20:31.514Z,3.00
2019-05-28T11:23:00.605Z,3.43
2019-05-28T11:25:29.993Z,2.83
2019-05-28T11:27:59.094Z,4.00
2019-05-28T11:30:28.299Z,3.30
2019-05-28T11:32:57.637Z,3.80
2019-05-28T11:35:27.053Z,3.30
2019-05-28T11:37:56.177Z,4.23
2019-05-28T11:40:25.755Z,3.43
2019-05-28T11:42:54.869Z,3.70
2019-05-28T11:45:24.081Z,3.63
2019-05-28T11:47:53.402Z,3.20
2019-05-28T11:50:22.878Z,3.17
2019-05-28T11:52:52.271Z,7.23
2019-05-28T11:55:21.893Z,3.80
2019-05-28T11:57:51.271Z,2.90
2019-05-28T12:00:20.870Z,3.23
2019-05-28T12:02:50.318Z,3.30
2019-05-28T12:05:20.078Z,3.57
2019-05-28T12:07:51.867Z,3.63
2019-05-28T12:10:20.898Z,3.47
2019-05-28T12:12:50.034Z,4.13
2019-05-28T12:15:20.135Z,3.37
2019-05-28T12:17:49.317Z,4.20
2019-05-28T12:20:23.384Z,3.73
2019-05-28T12:23:09.567Z,4.43
2019-05-28T12:25:25.409Z,3.73
2019-05-28T12:27:54.784Z,3.60
2019-05-28T12:30:24.862Z,3.47
2019-05-28T12:32:53.965Z,3.77
2019-05-28T12:35:28.824Z,2.87
2019-05-28T12:37:54.523Z,3.77
2019-05-28T12:40:24.509Z,3.10
2019-05-28T12:42:53.890Z,2.60
2019-05-28T12:45:35.037Z,3.17
2019-05-28T12:48:26.000Z,3.73
2019-05-28T12:50:26.217Z,3.40
2019-05-28T12:52:56.036Z,3.20
2019-05-28T12:55:25.616Z,4.53
2019-05-28T12:57:55.196Z,4.03
2019-05-28T13:00:24.563Z,5.50
2019-05-28T13:02:53.658Z,4.00
2019-05-28T13:05:27.553Z,4.20
2019-05-28T13:08:08.596Z,5.00
2019-05-28T13:10:27.870Z,4.77
2019-05-28T13:12:57.257Z,4.50
2019-05-28T13:15:26.369Z,5.10
2019-05-28T13:17:55.503Z,5.77
2019-05-28T13:20:24.875Z,5.27
2019-05-28T13:22:54.292Z,4.20
2019-05-28T13:25:23.673Z,4.77
2019-05-28T13:27:53.175Z,5.20
2019-05-28T13:30:22.587Z,5.27
2019-05-28T13:32:51.741Z,5.13
2019-05-28T13:35:21.452Z,5.30
2019-05-28T13:37:50.858Z,5.17
2019-05-28T13:40:20.369Z,4.90
2019-05-28T13:42:49.491Z,5.07
2019-05-28T13:45:19.020Z,4.60
2019-05-28T13:47:48.159Z,4.50
2019-05-28T13:50:17.796Z,4.17
2019-05-28T13:52:46.910Z,4.57
2019-05-28T13:55:16.737Z,4.63
2019-05-28T13:57:46.091Z,4.30
2019-05-28T14:00:19.387Z,3.80
2019-05-28T14:02:48.517Z,4.43
2019-05-28T14:05:18.464Z,5.60
2019-05-28T14:07:47.657Z,4.80
2019-05-28T14:10:18.380Z,5.23
2019-05-28T14:12:47.756Z,5.27
2019-05-28T14:15:17.481Z,3.60
2019-05-28T14:17:46.922Z,5.57
2019-05-28T14:20:19.639Z,5.53
2019-05-28T14:22:49.024Z,4.83
2019-05-28T14:25:18.245Z,4.10
2019-05-28T14:27:47.614Z,4.07
2019-05-28T14:30:18.982Z,3.87
2019-05-28T14:32:48.340Z,3.60
2019-05-28T14:35:17.595Z,3.43
2019-05-28T14:37:46.933Z,3.20
2019-05-28T14:40:16.498Z,2.67
2019-05-28T14:42:45.912Z,2.50
2019-05-28T14:45:15.534Z,2.47
2019-05-28T14:47:45.377Z,2.50
2019-05-28T14:50:16.358Z,2.27
2019-05-28T14:52:45.742Z,2.20
2019-05-28T14:55:16.146Z,1.90
2019-05-28T14:57:45.276Z,2.50
2019-05-28T15:00:17.482Z,2.47
2019-05-28T15:02:46.595Z,2.03
2019-05-28T15:05:16.247Z,2.73
2019-05-28T15:07:45.568Z,2.77
2019-05-28T15:10:16.529Z,2.93
2019-05-28T15:12:46.003Z,2.60
2019-05-28T15:15:33.940Z,2.67
2019-05-28T15:17:48.339Z,2.60
2019-05-28T15:20:18.755Z,2.50
2019-05-28T15:22:48.056Z,2.40
2019-05-28T15:25:17.831Z,2.50
2019-05-28T15:27:47.685Z,2.30
2019-05-28T15:30:17.493Z,2.70
2019-05-28T15:32:46.572Z,2.70
2019-05-28T15:35:16.149Z,2.33
2019-05-28T15:37:45.483Z,1.90
2019-05-28T15:40:15.444Z,1.80
2019-05-28T15:42:44.545Z,2.50
2019-05-28T15:45:14.365Z,3.47
2019-05-28T15:47:45.119Z,1.80
2019-05-28T15:50:15.661Z,2.13
2019-05-28T15:52:44.829Z,2.00
2019-05-28T15:55:14.298Z,1.57
2019-05-28T15:57:44.544Z,1.73
2019-05-28T16:00:21.514Z,1.87
2019-05-28T16:02:51.191Z,2.30
2019-05-28T16:05:20.864Z,1.70
2019-05-28T16:07:50.190Z,1.47
2019-05-28T16:10:19.384Z,4.50
2019-05-28T16:12:48.967Z,3.03
2019-05-28T16:15:18.784Z,2.23
2019-05-28T16:17:48.116Z,1.90
2019-05-28T16:20:17.811Z,1.97
2019-05-28T16:22:46.927Z,3.47
2019-05-28T16:25:18.207Z,1.90
2019-05-28T16:27:47.561Z,2.03
2019-05-28T16:30:17.055Z,2.47
2019-05-28T16:32:46.387Z,2.63
2019-05-28T16:35:19.463Z,2.37
2019-05-28T16:37:48.567Z,3.00
2019-05-28T16:40:18.916Z,2.00
2019-05-28T16:42:54.259Z,2.27
2019-05-28T16:45:25.058Z,1.90
2019-05-28T16:47:54.183Z,1.50
2019-05-28T16:50:24.549Z,1.90
2019-05-28T16:52:53.884Z,2.87
2019-05-28T16:55:22.981Z,2.93
2019-05-28T16:57:52.506Z,2.20
2019-05-28T17:00:21.684Z,2.00
2019-05-28T17:02:51.162Z,2.00
2019-05-28T17:05:20.286Z,1.87
2019-05-28T17:07:49.410Z,1.90
2019-05-28T17:10:32.217Z,1.70
2019-05-28T17:12:49.309Z,1.90
2019-05-28T17:15:19.246Z,2.03
2019-05-28T17:17:48.555Z,2.07
2019-05-28T17:20:19.431Z,1.97
2019-05-28T17:22:48.534Z,1.80
2019-05-28T17:25:18.115Z,1.50
2019-05-28T17:27:47.476Z,3.13
2019-05-28T17:30:23.663Z,4.93
2019-05-28T17:32:49.025Z,3.10
2019-05-28T17:35:18.834Z,2.53
2019-05-28T17:37:47.966Z,1.87
2019-05-28T17:40:21.817Z,1.60
2019-05-28T17:42:48.175Z,1.80
2019-05-28T17:45:18.283Z,2.00
2019-05-28T17:47:47.740Z,2.27
2019-05-28T17:50:17.926Z,2.57
2019-05-28T17:52:51.056Z,2.43
2019-05-28T17:55:18.045Z,1.97
2019-05-28T17:57:47.400Z,2.20
2019-05-28T18:00:17.271Z,2.40
2019-05-28T18:02:48.477Z,2.03
2019-05-28T18:05:17.506Z,2.30
2019-05-28T18:07:46.897Z,4.23
2019-05-28T18:10:16.624Z,3.93
2019-05-28T18:12:45.735Z,3.00
2019-05-28T18:15:15.505Z,2.47
2019-05-28T18:17:44.852Z,3.37
2019-05-28T18:20:15.100Z,3.13
2019-05-28T18:22:44.352Z,2.70
2019-05-28T18:25:14.832Z,3.00
2019-05-28T18:27:43.938Z,2.80
2019-05-28T18:30:13.586Z,3.10
2019-05-28T18:32:42.943Z,3.60
2019-05-28T18:35:12.601Z,3.70
2019-05-28T18:37:41.803Z,3.20
2019-05-28T18:40:11.818Z,3.27
2019-05-28T18:42:41.237Z,3.10
2019-05-28T18:45:10.698Z,3.00
2019-05-28T18:47:40.805Z,3.33
2019-05-28T18:50:10.985Z,3.53
2019-05-28T18:52:40.367Z,3.47
2019-05-28T18:55:10.238Z,3.07
2019-05-28T18:57:39.602Z,4.07
2019-05-28T19:00:09.931Z,3.27
2019-05-28T19:02:39.072Z,3.47
2019-05-28T19:05:08.513Z,3.03
2019-05-28T19:07:37.665Z,3.70
2019-05-28T19:10:07.418Z,2.77
2019-05-28T19:12:36.763Z,3.03
2019-05-28T19:15:08.293Z,2.70
2019-05-28T19:17:37.676Z,3.30
2019-05-28T19:20:08.666Z,3.20
2019-05-28T19:22:38.375Z,2.83
2019-05-28T19:25:11.893Z,4.33
2019-05-28T19:27:40.974Z,4.10
2019-05-28T19:30:11.008Z,3.40
2019-05-28T19:32:40.124Z,3.70
2019-05-28T19:35:10.203Z,3.23
2019-05-28T19:37:39.784Z,3.13
2019-05-28T19:40:09.034Z,2.80
2019-05-28T19:42:38.371Z,2.73
2019-05-28T19:45:07.710Z,2.97
2019-05-28T19:47:37.422Z,2.90
2019-05-28T19:50:25.945Z,8.50
2019-05-28T19:52:57.262Z,3.10
2019-05-28T19:55:26.250Z,6.87
2019-05-28T19:57:55.654Z,3.33
2019-05-28T20:00:25.178Z,3.43
2019-05-28T20:02:57.033Z,2.60
2019-05-28T20:05:26.252Z,3.10
2019-05-28T20:07:55.722Z,3.20
2019-05-28T20:10:25.032Z,3.17
2019-05-28T20:12:54.270Z,3.23
2019-05-28T20:15:25.718Z,3.20
2019-05-28T20:17:56.750Z,2.90
2019-05-28T20:20:26.088Z,2.80
2019-05-28T20:22:56.182Z,3.10
2019-05-28T20:25:25.605Z,2.97
2019-05-28T20:27:55.942Z,3.20
2019-05-28T20:30:26.721Z,3.33
2019-05-28T20:32:59.012Z,3.50
2019-05-28T20:35:30.822Z,3.07
2019-05-28T20:37:58.135Z,3.13
2019-05-28T20:40:27.280Z,3.27
2019-05-28T20:42:56.783Z,3.30
2019-05-28T20:45:25.928Z,3.23
2019-05-28T20:47:55.435Z,3.53
2019-05-28T20:50:24.891Z,3.37
2019-05-28T20:52:54.331Z,3.30
2019-05-28T20:55:23.846Z,3.43
2019-05-28T20:57:53.441Z,3.23
2019-05-28T21:00:23.375Z,3.40
2019-05-28T21:02:53.720Z,3.90
2019-05-28T21:05:23.326Z,3.90
2019-05-28T21:07:54.259Z,4.37
2019-05-28T21:10:24.407Z,4.10
2019-05-28T21:12:54.804Z,4.03
2019-05-28T21:15:24.443Z,3.97
2019-05-28T21:17:55.307Z,4.43
2019-05-28T21:20:24.628Z,3.63
2019-05-28T21:22:53.855Z,3.97
2019-05-28T21:25:23.229Z,3.90
2019-05-28T21:27:52.508Z,3.87
2019-05-28T21:30:21.887Z,3.70
2019-05-28T21:32:52.479Z,3.90
2019-05-28T21:35:22.738Z,4.00
2019-05-28T21:37:52.974Z,3.43
2019-05-28T21:40:23.363Z,4.10
2019-05-28T21:43:01.360Z,4.40
2019-05-28T21:45:24.096Z,4.43
2019-05-28T21:47:54.384Z,4.30
2019-05-28T21:50:23.710Z,4.07
2019-05-28T21:52:53.116Z,4.47
2019-05-28T21:55:22.407Z,4.63
2019-05-28T21:57:51.560Z,3.60
2019-05-28T22:00:30.004Z,4.10
2019-05-28T22:03:00.444Z,4.30
2019-05-28T22:05:29.981Z,3.90
2019-05-28T22:07:59.410Z,4.27
2019-05-28T22:10:28.690Z,4.03
2019-05-28T22:12:58.067Z,4.03
2019-05-28T22:15:27.550Z,4.40
2019-05-28T22:17:57.947Z,4.47
2019-05-28T22:20:27.617Z,4.60
2019-05-28T22:22:58.318Z,4.87
2019-05-28T22:25:27.836Z,4.73
2019-05-28T22:27:58.434Z,5.03
2019-05-28T22:30:28.038Z,5.20
2019-05-28T22:32:57.994Z,5.10
2019-05-28T22:35:27.153Z,4.87
2019-05-28T22:37:57.175Z,5.70
2019-05-28T22:40:26.455Z,5.57
2019-05-28T22:42:56.470Z,5.27
2019-05-28T22:45:25.977Z,5.70
2019-05-28T22:47:55.516Z,5.70
2019-05-28T22:50:25.146Z,5.10
2019-05-28T22:52:54.570Z,6.40
2019-05-28T22:55:23.975Z,6.77
2019-05-28T22:57:53.405Z,5.90
2019-05-28T23:00:22.906Z,6.60
2019-05-28T23:02:52.285Z,6.17
2019-05-28T23:05:21.468Z,7.13
2019-05-28T23:07:50.655Z,6.30
2019-05-28T23:10:21.125Z,6.13
2019-05-28T23:12:50.478Z,6.33
2019-05-28T23:15:20.051Z,6.40
2019-05-28T23:17:49.230Z,6.73
2019-05-28T23:20:19.188Z,6.30
2019-05-28T23:22:48.852Z,6.00
2019-05-28T23:25:18.335Z,6.37
2019-05-28T23:27:47.477Z,5.87
2019-05-28T23:30:24.548Z,6.10
2019-05-28T23:32:47.939Z,6.80
2019-05-28T23:35:20.342Z,7.07
2019-05-28T23:37:49.798Z,7.57
2019-05-28T23:40:19.554Z,8.20
2019-05-28T23:42:48.951Z,6.87
2019-05-28T23:45:18.477Z,7.93
2019-05-28T23:47:47.634Z,7.53
2019-05-28T23:50:18.294Z,7.50
2019-05-28T23:52:47.857Z,8.57
2019-05-28T23:55:18.104Z,8.00
2019-05-28T23:57:47.652Z,8.37
